Terminal Aerodrome Forecast
Issued by NWS Shreveport, LA

Home | Current Version | Previous Version | Text Only | Print | Product List | Glossary On
Versions: 1 2 3 4 5 6 7 8 9 10 11 12 13
000
FTUS44 KSHV 111100
TAFSHV
TAF
KSHV 111139Z 1112/1212 19004KT P6SM FEW250
     FM111600 24006KT P6SM FEW035
     FM111800 23006KT P6SM SCT050 SCT250
     FM120100 19003KT P6SM SCT250=

USA.gov is the U.S. government's official web portal to all federal, state and local government web resources and services.